createdAt,value
2022-10-12T00:00:24.366Z,9.23
2022-10-12T00:02:50.601Z,9.20
2022-10-12T00:05:16.834Z,9.45
2022-10-12T00:07:43.020Z,10.40
2022-10-12T00:10:09.265Z,9.95
2022-10-12T00:12:35.462Z,9.70
2022-10-12T00:15:01.710Z,9.40
2022-10-12T00:17:27.938Z,9.48
2022-10-12T00:19:54.144Z,8.32
2022-10-12T00:22:20.564Z,9.20
2022-10-12T00:24:46.995Z,9.77
2022-10-12T00:27:13.279Z,8.45
2022-10-12T00:29:39.471Z,8.70
2022-10-12T00:32:05.702Z,9.00
2022-10-12T00:34:31.964Z,8.82
2022-10-12T00:36:58.173Z,9.70
2022-10-12T00:39:24.402Z,9.95
2022-10-12T00:41:50.687Z,9.30
2022-10-12T00:44:36.811Z,9.52
2022-10-12T00:47:05.124Z,9.27
2022-10-12T00:49:31.380Z,9.45
2022-10-12T00:52:01.533Z,9.98
2022-10-12T00:54:32.860Z,8.70
2022-10-12T00:57:01.267Z,8.98
2022-10-12T00:59:32.383Z,8.82
2022-10-12T01:02:06.052Z,7.78
2022-10-12T01:04:32.715Z,8.27
2022-10-12T01:06:59.525Z,9.43
2022-10-12T01:09:27.416Z,9.05
2022-10-12T01:11:53.728Z,8.32
2022-10-12T01:14:19.945Z,7.97
2022-10-12T01:17:04.814Z,8.57
2022-10-12T01:19:53.748Z,8.52
2022-10-12T01:22:22.868Z,8.80
2022-10-12T01:24:52.789Z,8.02
2022-10-12T01:27:39.548Z,8.65
2022-10-12T01:30:13.676Z,8.07
2022-10-12T01:32:42.686Z,8.80
2022-10-12T01:35:39.043Z,8.45
2022-10-12T01:38:08.010Z,8.75
2022-10-12T01:40:42.158Z,7.70
2022-10-12T01:43:08.507Z,7.30
2022-10-12T01:45:34.990Z,7.63
2022-10-12T01:48:01.548Z,8.55
2022-10-12T01:50:32.187Z,8.30
2022-10-12T01:53:05.132Z,8.27
2022-10-12T01:55:34.491Z,7.55
2022-10-12T01:58:18.754Z,9.15
2022-10-12T02:01:05.270Z,7.75
2022-10-12T02:03:40.055Z,8.35
2022-10-12T02:06:06.300Z,8.70
2022-10-12T02:08:36.611Z,8.38
2022-10-12T02:11:05.835Z,8.13
2022-10-12T02:13:34.666Z,8.85
2022-10-12T02:16:02.275Z,8.98
2022-10-12T02:18:28.695Z,8.48
2022-10-12T02:20:58.022Z,8.00
2022-10-12T02:23:25.069Z,8.70
2022-10-12T02:25:52.849Z,8.30
2022-10-12T02:28:21.828Z,8.30
2022-10-12T02:30:52.405Z,8.15
2022-10-12T02:33:23.854Z,8.17
2022-10-12T02:38:19.192Z,7.75
2022-10-12T02:40:47.857Z,7.75
2022-10-12T02:43:17.435Z,8.05
2022-10-12T02:45:44.853Z,7.93
2022-10-12T02:48:13.634Z,8.05
2022-10-12T02:50:40.015Z,8.00
2022-10-12T02:53:06.680Z,8.13
2022-10-12T02:55:37.202Z,8.23
2022-10-12T02:58:03.395Z,8.65
2022-10-12T03:00:32.572Z,7.03
2022-10-12T03:02:58.756Z,7.63
2022-10-12T03:05:24.936Z,7.22
2022-10-12T03:07:51.177Z,7.30
2022-10-12T03:10:17.497Z,7.22
2022-10-12T03:12:49.136Z,6.50
2022-10-12T03:15:16.319Z,6.72
2022-10-12T03:17:42.513Z,5.90
2022-10-12T03:20:08.998Z,7.18
2022-10-12T03:22:35.225Z,7.18
2022-10-12T03:25:01.473Z,7.00
2022-10-12T03:27:27.682Z,6.80
2022-10-12T03:29:53.916Z,6.88
2022-10-12T03:32:20.257Z,6.90
2022-10-12T03:34:46.457Z,6.45
2022-10-12T03:37:12.663Z,6.05
2022-10-12T03:39:38.956Z,6.78
2022-10-12T03:42:05.171Z,6.47
2022-10-12T03:44:31.389Z,6.95
2022-10-12T03:46:57.609Z,6.88
2022-10-12T03:49:23.848Z,7.13
2022-10-12T03:51:50.084Z,6.40
2022-10-12T03:54:16.479Z,5.80
2022-10-12T03:56:42.721Z,6.35
2022-10-12T03:59:08.925Z,6.30
2022-10-12T04:01:35.193Z,6.03
2022-10-12T04:04:01.476Z,6.20
2022-10-12T04:06:27.686Z,6.25
2022-10-12T04:08:53.903Z,7.05
2022-10-12T04:11:20.433Z,5.90
2022-10-12T04:13:46.688Z,6.47
2022-10-12T04:16:12.880Z,6.78
2022-10-12T04:18:39.127Z,6.10
2022-10-12T04:21:08.870Z,6.22
2022-10-12T04:23:35.090Z,5.97
2022-10-12T04:26:01.287Z,5.97
2022-10-12T04:28:27.561Z,6.28
2022-10-12T04:30:53.867Z,6.07
2022-10-12T04:33:20.080Z,5.95
2022-10-12T04:35:46.277Z,5.93
2022-10-12T04:38:13.115Z,5.70
2022-10-12T04:40:39.492Z,6.30
2022-10-12T04:43:05.689Z,6.15
2022-10-12T04:45:31.869Z,6.55
2022-10-12T04:47:58.094Z,6.53
2022-10-12T04:50:28.983Z,7.07
2022-10-12T04:52:56.152Z,6.68
2022-10-12T04:55:22.399Z,6.95
2022-10-12T04:57:49.983Z,6.93
2022-10-12T05:00:17.069Z,6.43
2022-10-12T05:02:43.311Z,7.03
2022-10-12T05:05:09.663Z,6.95
2022-10-12T05:07:36.135Z,6.60
2022-10-12T05:10:02.552Z,6.78
2022-10-12T05:12:28.806Z,7.07
2022-10-12T05:14:55.021Z,7.68
2022-10-12T05:17:21.235Z,7.22
2022-10-12T05:19:47.441Z,6.63
2022-10-12T05:22:13.645Z,6.88
2022-10-12T05:24:39.903Z,6.78
2022-10-12T05:27:06.153Z,7.18
2022-10-12T05:29:32.405Z,6.65
2022-10-12T05:31:58.657Z,7.35
2022-10-12T05:34:24.936Z,7.57
2022-10-12T05:36:51.159Z,6.65
2022-10-12T05:39:17.397Z,6.97
2022-10-12T05:41:43.690Z,6.95
2022-10-12T05:44:09.915Z,6.30
2022-10-12T05:46:36.113Z,7.65
2022-10-12T05:49:02.408Z,9.35
2022-10-12T05:51:29.145Z,7.28
2022-10-12T05:53:55.477Z,6.95
2022-10-12T05:56:21.720Z,7.40
2022-10-12T05:58:47.916Z,7.00
2022-10-12T06:01:14.166Z,6.90
2022-10-12T06:03:40.668Z,5.93
2022-10-12T06:06:07.107Z,6.88
2022-10-12T06:08:33.984Z,6.60
2022-10-12T06:11:00.505Z,7.30
2022-10-12T06:13:26.699Z,6.57
2022-10-12T06:15:52.970Z,6.63
2022-10-12T06:18:19.544Z,7.32
2022-10-12T06:20:49.536Z,7.10
2022-10-12T06:23:15.913Z,6.95
2022-10-12T06:25:42.144Z,8.02
2022-10-12T06:28:08.361Z,6.95
2022-10-12T06:30:34.604Z,6.57
2022-10-12T06:33:00.816Z,6.95
2022-10-12T06:35:27.057Z,7.05
2022-10-12T06:37:53.709Z,7.05
2022-10-12T06:40:20.307Z,7.10
2022-10-12T06:42:46.587Z,7.03
2022-10-12T06:45:12.798Z,6.40
2022-10-12T06:47:38.992Z,7.03
2022-10-12T06:50:05.472Z,7.07
2022-10-12T06:52:31.746Z,6.40
2022-10-12T06:54:57.954Z,6.60
2022-10-12T06:57:24.200Z,6.35
2022-10-12T06:59:50.523Z,5.97
2022-10-12T07:02:17.175Z,6.95
2022-10-12T07:04:43.518Z,6.20
2022-10-12T07:07:09.788Z,6.18
2022-10-12T07:09:36.332Z,5.85
2022-10-12T07:12:02.558Z,5.28
2022-10-12T07:14:28.826Z,4.97
2022-10-12T07:16:55.582Z,5.00
2022-10-12T07:19:22.149Z,4.90
2022-10-12T07:21:48.340Z,5.07
2022-10-12T07:24:14.581Z,5.60
2022-10-12T07:26:40.813Z,5.03
2022-10-12T07:29:07.386Z,5.18
2022-10-12T07:31:33.608Z,4.70
2022-10-12T07:33:59.797Z,4.25
2022-10-12T07:36:41.100Z,5.05
2022-10-12T07:39:12.678Z,5.03
2022-10-12T07:41:38.910Z,4.70
2022-10-12T07:44:05.151Z,5.65
2022-10-12T07:46:31.384Z,4.60
2022-10-12T07:48:57.708Z,4.60
2022-10-12T07:51:23.902Z,5.13
2022-10-12T07:53:50.629Z,4.90
2022-10-12T07:56:17.515Z,4.97
2022-10-12T07:58:47.891Z,4.75
2022-10-12T08:01:14.211Z,5.35
2022-10-12T08:03:40.640Z,5.03
2022-10-12T08:06:11.163Z,4.45
2022-10-12T08:08:37.461Z,4.78
2022-10-12T08:11:04.408Z,5.15
2022-10-12T08:13:30.903Z,5.20
2022-10-12T08:15:57.261Z,4.85
2022-10-12T08:18:23.489Z,5.28
2022-10-12T08:20:49.817Z,5.28
2022-10-12T08:23:16.190Z,4.82
2022-10-12T08:25:43.912Z,4.65
2022-10-12T08:28:10.252Z,5.63
2022-10-12T08:30:38.701Z,5.28
2022-10-12T08:33:09.495Z,4.97
2022-10-12T08:35:40.122Z,4.90
2022-10-12T08:38:07.282Z,5.22
2022-10-12T08:40:35.056Z,5.10
2022-10-12T08:43:20.163Z,4.80
2022-10-12T08:45:50.629Z,5.18
2022-10-12T08:48:28.318Z,4.82
2022-10-12T08:51:01.194Z,4.80
2022-10-12T08:53:27.593Z,4.82
2022-10-12T08:55:53.966Z,4.70
2022-10-12T08:58:21.721Z,5.30
2022-10-12T09:00:53.504Z,5.30
2022-10-12T09:03:37.603Z,5.07
2022-10-12T09:06:22.729Z,5.35
2022-10-12T09:08:55.150Z,5.43
2022-10-12T09:11:40.504Z,5.25
2022-10-12T09:14:17.892Z,5.38
2022-10-12T09:16:45.499Z,5.25
2022-10-12T09:19:14.445Z,5.13
2022-10-12T09:21:45.313Z,5.40
2022-10-12T09:24:17.383Z,5.15
2022-10-12T09:26:44.407Z,5.63
2022-10-12T09:29:20.915Z,4.85
2022-10-12T09:32:05.370Z,5.13
2022-10-12T09:34:31.752Z,5.47
2022-10-12T09:36:58.045Z,5.85
2022-10-12T09:39:30.588Z,6.00
2022-10-12T09:41:57.075Z,5.82
2022-10-12T09:44:37.629Z,5.82
2022-10-12T09:47:06.081Z,6.18
2022-10-12T09:49:42.365Z,6.63
2022-10-12T09:52:09.144Z,5.93
2022-10-12T09:54:35.706Z,5.65
2022-10-12T09:57:02.532Z,6.22
2022-10-12T09:59:30.747Z,6.25
2022-10-12T10:02:12.159Z,6.20
2022-10-12T10:04:38.688Z,5.90
2022-10-12T10:07:22.743Z,6.32
2022-10-12T10:10:02.899Z,5.40
2022-10-12T10:12:29.270Z,6.40
2022-10-12T10:14:56.710Z,5.28
2022-10-12T10:17:24.431Z,5.82
2022-10-12T10:19:51.392Z,5.80
2022-10-12T10:22:18.543Z,5.80
2022-10-12T10:24:49.585Z,5.60
2022-10-12T10:27:29.968Z,5.93
2022-10-12T10:30:28.729Z,5.95
2022-10-12T10:33:07.050Z,6.00
2022-10-12T10:35:33.300Z,6.22
2022-10-12T10:37:59.989Z,5.70
2022-10-12T10:40:27.781Z,5.47
2022-10-12T10:42:55.426Z,5.80
2022-10-12T10:45:23.328Z,5.55
2022-10-12T10:47:50.400Z,5.45
2022-10-12T10:50:29.031Z,5.60
2022-10-12T10:52:57.614Z,6.28
2022-10-12T10:55:28.572Z,6.03
2022-10-12T10:58:01.845Z,5.85
2022-10-12T11:00:44.893Z,6.00
2022-10-12T11:06:15.347Z,7.47
2022-10-12T11:08:43.289Z,7.10
2022-10-12T11:11:12.472Z,6.63
2022-10-12T11:13:42.196Z,6.50
2022-10-12T11:16:28.714Z,5.45
2022-10-12T11:18:56.589Z,6.25
2022-10-12T11:21:26.504Z,5.65
2022-10-12T11:24:00.567Z,6.32
2022-10-12T11:26:31.503Z,5.75
2022-10-12T11:28:59.136Z,5.40
2022-10-12T11:31:34.480Z,5.78
2022-10-12T11:34:03.327Z,5.72
2022-10-12T11:36:30.679Z,5.60
2022-10-12T11:39:03.215Z,5.55
2022-10-12T11:42:09.613Z,5.35
2022-10-12T11:44:38.751Z,5.30
2022-10-12T11:47:23.819Z,5.28
2022-10-12T11:49:52.927Z,6.00
2022-10-12T11:52:22.903Z,5.15
2022-10-12T11:54:55.665Z,4.30
2022-10-12T11:57:27.551Z,5.25
2022-10-12T11:59:56.598Z,4.80
2022-10-12T12:02:25.599Z,4.63
2022-10-12T12:04:52.653Z,4.25
2022-10-12T12:07:37.571Z,4.18
2022-10-12T12:10:22.543Z,4.53
2022-10-12T12:13:11.468Z,4.30
2022-10-12T12:15:38.517Z,5.20
2022-10-12T12:18:15.631Z,4.20
2022-10-12T12:20:42.344Z,4.47
2022-10-12T12:23:27.218Z,4.47
2022-10-12T12:26:25.789Z,4.65
2022-10-12T12:29:07.554Z,4.28
2022-10-12T12:31:34.038Z,4.90
2022-10-12T12:34:01.954Z,4.70
2022-10-12T12:36:31.304Z,4.65
2022-10-12T12:38:57.571Z,4.32
2022-10-12T12:41:47.499Z,4.38
2022-10-12T12:44:35.003Z,4.25
2022-10-12T12:47:01.163Z,8.68
2022-10-12T12:49:45.836Z,5.65
2022-10-12T12:52:12.329Z,5.10
2022-10-12T12:54:50.580Z,5.90
2022-10-12T12:57:19.496Z,5.53
2022-10-12T12:59:48.740Z,5.82
2022-10-12T13:02:15.042Z,5.40
2022-10-12T13:05:14.510Z,5.75
2022-10-12T13:07:52.036Z,6.10
2022-10-12T13:10:37.150Z,5.80
2022-10-12T13:13:09.223Z,5.60
2022-10-12T13:15:52.355Z,6.50
2022-10-12T13:18:52.446Z,5.32
2022-10-12T13:21:21.610Z,4.53
2022-10-12T13:23:49.325Z,4.47
2022-10-12T13:26:21.918Z,4.85
2022-10-12T13:28:48.590Z,5.00
2022-10-12T13:31:25.567Z,4.85
2022-10-12T13:34:10.743Z,4.90
2022-10-12T13:36:47.148Z,4.68
2022-10-12T13:39:18.064Z,5.72
2022-10-12T13:41:44.886Z,5.35
2022-10-12T13:44:19.439Z,5.00
2022-10-12T13:46:46.716Z,4.70
2022-10-12T13:49:12.900Z,4.88
2022-10-12T13:51:39.118Z,5.55
2022-10-12T13:54:15.393Z,5.15
2022-10-12T13:56:41.760Z,4.68
2022-10-12T13:59:17.804Z,4.80
2022-10-12T14:01:52.826Z,5.10
2022-10-12T14:04:19.241Z,5.03
2022-10-12T14:07:11.931Z,5.28
2022-10-12T14:09:41.878Z,5.03
2022-10-12T14:12:08.680Z,5.70
2022-10-12T14:14:37.165Z,4.88
2022-10-12T14:17:03.520Z,4.88
2022-10-12T14:19:33.358Z,4.68
2022-10-12T14:22:00.431Z,4.70
2022-10-12T14:24:26.829Z,4.80
2022-10-12T14:26:54.667Z,4.40
2022-10-12T14:29:27.029Z,4.72
2022-10-12T14:31:57.788Z,4.45
2022-10-12T14:34:26.843Z,4.35
2022-10-12T14:37:03.040Z,3.83
2022-10-12T14:39:29.362Z,4.93
2022-10-12T14:41:56.529Z,4.75
2022-10-12T14:44:23.354Z,4.50
2022-10-12T14:46:54.224Z,4.13
2022-10-12T14:49:32.216Z,3.97
2022-10-12T14:51:59.205Z,4.90
2022-10-12T14:54:25.472Z,4.15
2022-10-12T14:56:51.680Z,4.57
2022-10-12T14:59:17.941Z,4.28
2022-10-12T15:01:47.463Z,4.45
2022-10-12T15:04:17.392Z,3.90
2022-10-12T15:06:48.308Z,4.78
2022-10-12T15:09:16.829Z,4.57
2022-10-12T15:11:43.166Z,5.00
2022-10-12T15:14:09.932Z,4.68
2022-10-12T15:16:36.394Z,4.68
2022-10-12T15:19:02.635Z,4.93
2022-10-12T15:21:28.806Z,4.75
2022-10-12T15:23:55.061Z,4.35
2022-10-12T15:26:22.391Z,4.22
2022-10-12T15:28:48.705Z,4.35
2022-10-12T15:31:18.273Z,4.32
2022-10-12T15:33:45.367Z,4.40
2022-10-12T15:36:11.682Z,5.35
2022-10-12T15:38:38.049Z,4.05
2022-10-12T15:41:04.683Z,8.07
2022-10-12T15:43:32.407Z,7.43
2022-10-12T15:46:00.173Z,5.28
2022-10-12T15:48:27.749Z,4.75
2022-10-12T15:50:53.954Z,4.20
2022-10-12T15:53:23.522Z,4.72
2022-10-12T15:55:50.256Z,4.20
2022-10-12T15:58:16.756Z,4.82
2022-10-12T16:00:43.072Z,8.18
2022-10-12T16:03:13.129Z,6.38
2022-10-12T16:05:39.406Z,4.80
2022-10-12T16:08:06.038Z,5.90
2022-10-12T16:10:33.923Z,5.45
2022-10-12T16:13:00.411Z,5.18
2022-10-12T16:15:29.431Z,5.22
2022-10-12T16:17:56.047Z,5.00
2022-10-12T16:20:22.711Z,6.00
2022-10-12T16:22:49.455Z,4.53
2022-10-12T16:25:17.047Z,4.63
2022-10-12T16:27:43.933Z,5.30
2022-10-12T16:30:10.393Z,5.00
2022-10-12T16:32:36.609Z,5.20
2022-10-12T16:35:03.610Z,5.38
2022-10-12T16:37:30.167Z,8.68
2022-10-12T16:39:56.387Z,4.50
2022-10-12T16:42:22.760Z,5.60
2022-10-12T16:44:49.040Z,5.00
2022-10-12T16:47:15.462Z,4.82
2022-10-12T16:49:41.950Z,5.00
2022-10-12T16:52:08.367Z,5.38
2022-10-12T16:54:34.603Z,5.13
2022-10-12T16:57:00.908Z,5.57
2022-10-12T16:59:27.372Z,5.25
2022-10-12T17:01:53.741Z,5.60
2022-10-12T17:04:20.958Z,6.00
2022-10-12T17:06:48.061Z,5.68
2022-10-12T17:09:14.438Z,4.78
2022-10-12T17:11:40.695Z,5.07
2022-10-12T17:14:07.965Z,4.82
2022-10-12T17:16:49.829Z,5.57
2022-10-12T17:19:20.517Z,5.53
2022-10-12T17:21:47.567Z,5.53
2022-10-12T17:24:15.478Z,5.18
2022-10-12T17:26:42.137Z,4.55
2022-10-12T17:29:09.822Z,5.72
2022-10-12T17:31:36.403Z,6.63
2022-10-12T17:34:02.783Z,6.47
2022-10-12T17:36:29.084Z,6.45
2022-10-12T17:38:55.979Z,6.50
2022-10-12T17:41:22.274Z,7.00
2022-10-12T17:43:48.459Z,6.90
2022-10-12T17:46:17.004Z,6.55
2022-10-12T17:48:45.224Z,6.70
2022-10-12T17:51:12.858Z,6.38
2022-10-12T17:53:39.937Z,6.85
2022-10-12T17:56:07.019Z,6.13
2022-10-12T17:58:33.475Z,5.38
2022-10-12T18:01:10.031Z,6.47
2022-10-12T18:03:36.500Z,5.93
2022-10-12T18:06:06.130Z,6.88
2022-10-12T18:08:32.538Z,6.80
2022-10-12T18:10:59.756Z,7.03
2022-10-12T18:13:26.251Z,6.70
2022-10-12T18:15:52.532Z,7.45
2022-10-12T18:18:19.108Z,7.47
2022-10-12T18:20:45.511Z,6.60
2022-10-12T18:23:12.334Z,6.97
2022-10-12T18:25:39.202Z,7.70
2022-10-12T18:28:05.858Z,7.70
2022-10-12T18:30:32.368Z,6.95
2022-10-12T18:33:00.182Z,6.97
2022-10-12T18:35:27.002Z,7.55
2022-10-12T18:37:53.316Z,7.70
2022-10-12T18:40:19.700Z,6.88
2022-10-12T18:42:45.934Z,8.18
2022-10-12T18:45:12.267Z,8.98
2022-10-12T18:47:39.047Z,8.07
2022-10-12T18:50:05.839Z,8.02
2022-10-12T18:52:32.342Z,6.65
2022-10-12T18:54:58.576Z,6.43
2022-10-12T18:57:30.195Z,6.57
2022-10-12T18:59:57.477Z,7.45
2022-10-12T19:02:23.676Z,7.32
2022-10-12T19:04:49.898Z,6.93
2022-10-12T19:07:16.889Z,8.02
2022-10-12T19:09:43.097Z,7.35
2022-10-12T19:12:09.529Z,7.13
2022-10-12T19:14:36.079Z,7.80
2022-10-12T19:17:02.336Z,7.45
2022-10-12T19:19:28.553Z,6.80
2022-10-12T19:21:54.920Z,6.93
2022-10-12T19:24:21.805Z,7.50
2022-10-12T19:26:48.437Z,6.78
2022-10-12T19:29:14.957Z,6.22
2022-10-12T19:31:43.419Z,6.80
2022-10-12T19:34:11.004Z,5.95
2022-10-12T19:36:37.863Z,5.45
2022-10-12T19:39:06.398Z,6.50
2022-10-12T19:41:32.847Z,6.45
2022-10-12T19:43:59.669Z,6.18
2022-10-12T19:46:25.952Z,6.10
2022-10-12T19:48:53.051Z,5.85
2022-10-12T19:51:20.044Z,6.47
2022-10-12T19:53:46.349Z,5.82
2022-10-12T19:56:15.244Z,6.20
2022-10-12T19:58:42.140Z,6.35
2022-10-12T20:01:11.006Z,6.82
2022-10-12T20:03:37.631Z,7.65
2022-10-12T20:06:07.879Z,7.78
2022-10-12T20:08:34.361Z,7.10
2022-10-12T20:11:03.732Z,6.65
2022-10-12T20:13:30.384Z,6.72
2022-10-12T20:15:57.000Z,7.30
2022-10-12T20:18:23.699Z,7.40
2022-10-12T20:20:50.244Z,7.57
2022-10-12T20:23:16.960Z,7.32
2022-10-12T20:25:44.265Z,8.13
2022-10-12T20:28:10.972Z,8.25
2022-10-12T20:30:37.552Z,8.07
2022-10-12T20:33:03.958Z,8.20
2022-10-12T20:35:33.567Z,8.55
2022-10-12T20:38:00.380Z,8.93
2022-10-12T20:40:26.867Z,8.27
2022-10-12T20:42:53.912Z,8.77
2022-10-12T20:45:20.246Z,9.00
2022-10-12T20:47:46.518Z,9.00
2022-10-12T20:50:13.301Z,8.80
2022-10-12T20:52:42.746Z,7.82
2022-10-12T20:55:09.710Z,8.40
2022-10-12T20:57:36.109Z,8.63
2022-10-12T21:00:02.565Z,8.55
2022-10-12T21:02:28.770Z,7.97
2022-10-12T21:04:54.973Z,9.40
2022-10-12T21:07:21.241Z,9.38
2022-10-12T21:09:47.465Z,9.32
2022-10-12T21:12:13.663Z,9.23
2022-10-12T21:14:39.868Z,10.02
2022-10-12T21:17:06.091Z,10.77
2022-10-12T21:19:32.287Z,10.77
2022-10-12T21:21:58.585Z,10.60
2022-10-12T21:24:25.010Z,10.77
2022-10-12T21:26:51.809Z,12.10
2022-10-12T21:29:18.085Z,12.27
2022-10-12T21:31:45.301Z,12.00
2022-10-12T21:34:11.803Z,11.80
2022-10-12T21:36:38.525Z,10.77
2022-10-12T21:39:10.688Z,11.88
2022-10-12T21:41:36.912Z,11.93
2022-10-12T21:44:03.385Z,11.82
2022-10-12T21:46:30.731Z,12.70
2022-10-12T21:48:57.255Z,11.85
2022-10-12T21:51:23.969Z,11.93
2022-10-12T21:53:50.704Z,11.65
2022-10-12T21:56:18.855Z,11.88
2022-10-12T21:58:45.614Z,12.02
2022-10-12T22:01:13.565Z,12.30
2022-10-12T22:03:40.443Z,12.45
2022-10-12T22:06:06.698Z,12.40
2022-10-12T22:08:32.936Z,13.00
2022-10-12T22:11:06.355Z,12.27
2022-10-12T22:13:32.863Z,12.35
2022-10-12T22:16:00.095Z,12.27
2022-10-12T22:18:26.307Z,12.45
2022-10-12T22:20:52.496Z,12.50
2022-10-12T22:23:18.709Z,12.30
2022-10-12T22:25:44.889Z,12.93
2022-10-12T22:28:11.209Z,13.45
2022-10-12T22:30:40.793Z,12.50
2022-10-12T22:33:07.245Z,12.60
2022-10-12T22:35:33.482Z,11.68
2022-10-12T22:37:59.789Z,11.60
2022-10-12T22:40:26.015Z,11.50
2022-10-12T22:42:52.216Z,11.68
2022-10-12T22:45:18.441Z,11.65
2022-10-12T22:47:45.097Z,11.35
2022-10-12T22:50:11.337Z,11.63
2022-10-12T22:52:37.630Z,10.98
2022-10-12T22:55:03.925Z,10.68
2022-10-12T22:57:30.128Z,10.48
2022-10-12T22:59:56.304Z,10.10
2022-10-12T23:02:22.498Z,11.10
2022-10-12T23:04:48.708Z,10.82
2022-10-12T23:07:14.920Z,11.25
2022-10-12T23:09:41.383Z,10.73
2022-10-12T23:12:07.678Z,11.52
2022-10-12T23:14:33.930Z,10.70
2022-10-12T23:17:00.103Z,11.40
2022-10-12T23:19:26.354Z,10.52
2022-10-12T23:21:52.551Z,11.65
2022-10-12T23:24:18.736Z,10.73
2022-10-12T23:26:44.967Z,10.80
2022-10-12T23:29:11.174Z,11.35
2022-10-12T23:31:37.412Z,11.00
2022-10-12T23:34:04.982Z,10.95
2022-10-12T23:36:31.514Z,10.60
2022-10-12T23:38:59.781Z,11.35
2022-10-12T23:41:26.127Z,10.85
2022-10-12T23:43:52.382Z,11.73
2022-10-12T23:46:18.645Z,10.73
2022-10-12T23:48:44.851Z,11.25
2022-10-12T23:51:11.174Z,11.43
2022-10-12T23:53:37.819Z,12.07
2022-10-12T23:56:04.945Z,11.45
2022-10-12T23:58:31.210Z,11.70
